createdAt,value
2022-12-31T00:00:21.148Z,0.30
2022-12-31T00:02:48.132Z,0.40
2022-12-31T00:05:15.255Z,0.40
2022-12-31T00:10:08.950Z,0.30
2022-12-31T00:12:37.235Z,0.73
2022-12-31T00:15:04.954Z,0.43
2022-12-31T00:17:31.819Z,0.50
2022-12-31T00:19:58.741Z,0.57
2022-12-31T00:22:25.643Z,0.40
2022-12-31T00:24:52.571Z,0.50
2022-12-31T00:27:19.431Z,0.60
2022-12-31T00:29:47.973Z,0.40
2022-12-31T00:32:14.831Z,0.40
2022-12-31T00:34:41.822Z,0.60
2022-12-31T00:37:08.668Z,0.30
2022-12-31T00:39:35.566Z,0.40
2022-12-31T00:42:02.599Z,0.40
2022-12-31T00:44:29.454Z,0.70
2022-12-31T00:46:57.619Z,0.53
2022-12-31T00:49:24.532Z,0.40
2022-12-31T00:51:51.441Z,0.60
2022-12-31T00:54:18.279Z,0.50
2022-12-31T00:56:45.238Z,0.40
2022-12-31T00:59:12.161Z,0.40
2022-12-31T01:01:40.812Z,0.30
2022-12-31T01:04:11.544Z,0.37
2022-12-31T01:06:39.115Z,0.50
2022-12-31T01:09:07.091Z,0.50
2022-12-31T01:11:34.724Z,0.60
2022-12-31T01:14:07.656Z,0.60
2022-12-31T01:16:37.264Z,0.70
2022-12-31T01:19:07.360Z,0.40
2022-12-31T01:21:36.564Z,0.57
2022-12-31T01:24:03.554Z,0.50
2022-12-31T01:26:30.999Z,0.50
2022-12-31T01:28:57.841Z,0.50
2022-12-31T01:31:25.225Z,0.47
2022-12-31T01:33:52.980Z,0.57
2022-12-31T01:36:25.890Z,0.40
2022-12-31T01:38:56.691Z,0.70
2022-12-31T01:41:27.243Z,0.53
2022-12-31T01:43:56.383Z,0.57
2022-12-31T01:46:32.767Z,0.47
2022-12-31T01:49:04.236Z,0.70
2022-12-31T01:51:34.312Z,0.60
2022-12-31T01:54:04.434Z,0.50
2022-12-31T01:56:31.350Z,0.77
2022-12-31T01:58:58.623Z,0.67
2022-12-31T02:01:27.849Z,0.63
2022-12-31T02:03:56.263Z,0.80
2022-12-31T02:06:26.307Z,0.53
2022-12-31T02:08:53.157Z,0.70
2022-12-31T02:11:28.518Z,0.50
2022-12-31T02:13:58.991Z,0.60
2022-12-31T02:16:33.275Z,0.50
2022-12-31T02:19:15.377Z,0.60
2022-12-31T02:21:53.986Z,0.70
2022-12-31T02:24:54.528Z,0.60
2022-12-31T02:27:34.600Z,0.60
2022-12-31T02:30:08.673Z,0.53
2022-12-31T02:32:54.292Z,0.60
2022-12-31T02:35:26.425Z,0.57
2022-12-31T02:37:59.130Z,0.60
2022-12-31T02:40:26.721Z,0.73
2022-12-31T02:42:55.686Z,0.67
2022-12-31T02:45:29.594Z,0.70
2022-12-31T02:48:29.340Z,0.60
2022-12-31T02:51:09.420Z,0.50
2022-12-31T02:54:02.099Z,0.90
2022-12-31T02:56:38.189Z,0.50
2022-12-31T02:59:30.560Z,0.40
2022-12-31T03:02:13.757Z,0.53
2022-12-31T03:04:41.475Z,0.70
2022-12-31T03:07:10.234Z,0.50
2022-12-31T03:09:37.964Z,0.50
2022-12-31T03:12:25.087Z,0.50
2022-12-31T03:14:52.165Z,0.60
2022-12-31T03:17:20.426Z,0.50
2022-12-31T03:20:06.558Z,0.60
2022-12-31T03:22:36.321Z,0.53
2022-12-31T03:25:26.529Z,0.50
2022-12-31T03:27:54.025Z,0.50
2022-12-31T03:30:22.545Z,0.50
2022-12-31T03:32:52.013Z,0.50
2022-12-31T03:35:20.590Z,0.53
2022-12-31T03:37:48.626Z,0.50
2022-12-31T03:40:17.054Z,0.40
2022-12-31T03:42:44.072Z,0.70
2022-12-31T03:45:12.160Z,0.40
2022-12-31T03:47:39.452Z,0.60
2022-12-31T03:50:09.491Z,0.30
2022-12-31T03:52:36.631Z,0.43
2022-12-31T03:55:04.124Z,0.40
2022-12-31T03:57:31.598Z,0.40
2022-12-31T03:59:58.597Z,0.50
2022-12-31T04:02:28.895Z,0.40
2022-12-31T04:04:56.469Z,0.40
2022-12-31T04:07:24.698Z,0.43
2022-12-31T04:09:51.715Z,0.50
2022-12-31T04:12:18.522Z,0.57
2022-12-31T04:14:45.366Z,0.40
2022-12-31T04:17:12.201Z,0.40
2022-12-31T04:19:39.086Z,0.43
2022-12-31T04:22:06.282Z,0.50
2022-12-31T04:24:34.471Z,0.40
2022-12-31T04:27:07.226Z,0.40
2022-12-31T04:29:34.642Z,0.40
2022-12-31T04:32:02.068Z,0.43
2022-12-31T04:34:28.933Z,0.50
2022-12-31T04:36:55.806Z,0.50
2022-12-31T04:39:22.725Z,0.47
2022-12-31T04:41:51.257Z,0.30
2022-12-31T04:44:18.538Z,0.40
2022-12-31T04:46:45.419Z,0.50
2022-12-31T04:49:12.465Z,0.67
2022-12-31T04:51:39.508Z,0.43
2022-12-31T04:54:06.599Z,0.60
2022-12-31T04:56:36.498Z,0.50
2022-12-31T04:59:05.057Z,0.40
2022-12-31T05:01:32.911Z,0.40
2022-12-31T05:04:00.179Z,0.53
2022-12-31T05:06:27.057Z,0.33
2022-12-31T05:08:54.180Z,0.40
2022-12-31T05:11:21.064Z,0.50
2022-12-31T05:13:47.890Z,0.37
2022-12-31T05:16:16.574Z,0.40
2022-12-31T05:18:43.417Z,0.57
2022-12-31T05:21:15.391Z,0.33
2022-12-31T05:23:42.216Z,0.40
2022-12-31T05:26:09.058Z,0.60
2022-12-31T05:28:35.899Z,0.50
2022-12-31T05:31:02.913Z,0.40
2022-12-31T05:33:31.242Z,0.40
2022-12-31T05:35:58.704Z,0.60
2022-12-31T05:38:26.079Z,0.47
2022-12-31T05:40:59.706Z,0.50
2022-12-31T05:43:26.604Z,0.40
2022-12-31T05:45:53.510Z,0.40
2022-12-31T05:48:20.378Z,0.20
2022-12-31T05:50:48.788Z,0.40
2022-12-31T05:53:15.655Z,0.30
2022-12-31T05:55:42.495Z,0.40
2022-12-31T05:58:09.334Z,0.50
2022-12-31T06:00:37.811Z,0.30
2022-12-31T06:03:04.765Z,0.47
2022-12-31T06:05:31.650Z,0.30
2022-12-31T06:07:59.821Z,0.50
2022-12-31T06:10:26.663Z,0.60
2022-12-31T06:12:53.509Z,0.47
2022-12-31T06:15:20.476Z,0.57
2022-12-31T06:17:47.303Z,0.60
2022-12-31T06:20:14.113Z,0.60
2022-12-31T06:22:40.951Z,0.50
2022-12-31T06:25:10.126Z,0.60
2022-12-31T06:27:37.024Z,0.40
2022-12-31T06:30:04.636Z,0.50
2022-12-31T06:32:31.561Z,0.30
2022-12-31T06:34:58.401Z,0.30
2022-12-31T06:37:25.221Z,0.50
2022-12-31T06:39:52.071Z,0.50
2022-12-31T06:42:21.203Z,0.30
2022-12-31T06:44:48.051Z,0.30
2022-12-31T06:47:15.028Z,0.40
2022-12-31T06:49:41.853Z,0.30
2022-12-31T06:52:08.658Z,0.60
2022-12-31T06:54:36.071Z,0.50
2022-12-31T06:57:03.548Z,0.50
2022-12-31T06:59:32.394Z,0.50
2022-12-31T07:02:25.752Z,0.40
2022-12-31T07:05:11.233Z,0.20
2022-12-31T07:07:49.724Z,0.40
2022-12-31T07:10:28.961Z,0.30
2022-12-31T07:13:23.782Z,0.40
2022-12-31T07:16:02.687Z,0.33
2022-12-31T07:18:39.060Z,0.50
2022-12-31T07:21:12.421Z,0.40
2022-12-31T07:23:39.700Z,0.40
2022-12-31T07:26:14.501Z,0.40
2022-12-31T07:28:51.586Z,0.30
2022-12-31T07:31:32.132Z,0.40
2022-12-31T07:34:00.457Z,0.43
2022-12-31T07:36:46.309Z,0.50
2022-12-31T07:39:16.602Z,0.57
2022-12-31T07:41:53.413Z,0.47
2022-12-31T07:44:35.321Z,0.47
2022-12-31T07:47:05.592Z,0.40
2022-12-31T07:49:34.109Z,0.30
2022-12-31T07:52:02.715Z,0.50
2022-12-31T07:54:29.526Z,0.40
2022-12-31T07:56:56.383Z,0.80
2022-12-31T07:59:34.376Z,0.63
2022-12-31T08:02:06.920Z,1.23
2022-12-31T08:04:42.799Z,0.53
2022-12-31T08:07:19.628Z,0.23
2022-12-31T08:09:52.528Z,0.50
2022-12-31T08:12:21.227Z,0.50
2022-12-31T08:14:49.191Z,0.40
2022-12-31T08:17:19.085Z,0.60
2022-12-31T08:19:46.957Z,0.53
2022-12-31T08:22:30.376Z,0.50
2022-12-31T08:25:08.158Z,0.60
2022-12-31T08:27:43.712Z,0.40
2022-12-31T08:30:14.660Z,0.40
2022-12-31T08:32:48.439Z,0.60
2022-12-31T08:35:27.943Z,0.40
2022-12-31T08:38:02.446Z,0.80
2022-12-31T08:40:38.267Z,1.00
2022-12-31T08:43:22.199Z,0.50
2022-12-31T08:45:51.318Z,0.70
2022-12-31T08:48:29.363Z,0.40
2022-12-31T08:50:56.730Z,0.40
2022-12-31T08:53:24.293Z,0.50
2022-12-31T08:55:57.586Z,0.57
2022-12-31T08:58:40.443Z,0.53
2022-12-31T09:01:09.064Z,0.60
2022-12-31T09:03:51.180Z,0.53
2022-12-31T09:06:27.496Z,0.60
2022-12-31T09:09:00.690Z,0.70
2022-12-31T09:11:33.136Z,0.70
2022-12-31T09:14:19.398Z,0.60
2022-12-31T09:16:55.299Z,0.60
2022-12-31T09:19:24.012Z,0.60
2022-12-31T09:21:51.822Z,0.57
2022-12-31T09:24:19.338Z,0.40
2022-12-31T09:26:57.523Z,0.80
2022-12-31T09:29:37.687Z,0.57
2022-12-31T09:32:14.523Z,0.60
2022-12-31T09:34:49.904Z,0.60
2022-12-31T09:37:25.914Z,0.60
2022-12-31T09:39:57.250Z,0.80
2022-12-31T09:43:04.659Z,0.70
2022-12-31T09:45:54.970Z,0.60
2022-12-31T09:48:45.710Z,0.70
2022-12-31T09:51:29.717Z,0.70
2022-12-31T09:54:20.108Z,0.53
2022-12-31T09:57:02.570Z,0.57
2022-12-31T09:59:35.279Z,0.50
2022-12-31T10:02:11.631Z,0.60
2022-12-31T10:05:00.527Z,0.50
2022-12-31T10:07:52.334Z,0.40
2022-12-31T10:10:25.990Z,0.53
2022-12-31T10:13:16.874Z,0.60
2022-12-31T10:16:15.986Z,0.63
2022-12-31T10:19:23.195Z,0.87
2022-12-31T10:22:00.691Z,0.80
2022-12-31T10:24:50.414Z,0.47
2022-12-31T10:27:32.927Z,0.47
2022-12-31T10:30:11.350Z,0.70
2022-12-31T10:32:43.776Z,0.50
2022-12-31T10:35:23.514Z,0.57
2022-12-31T10:37:59.484Z,0.70
2022-12-31T10:40:45.397Z,0.63
2022-12-31T10:43:44.375Z,0.50
2022-12-31T10:47:06.144Z,0.60
2022-12-31T10:50:03.885Z,0.80
2022-12-31T10:53:10.857Z,0.50
2022-12-31T10:56:07.867Z,0.80
2022-12-31T10:59:15.685Z,0.50
2022-12-31T11:01:49.129Z,0.50
2022-12-31T11:04:44.315Z,0.80
2022-12-31T11:07:35.347Z,0.80
2022-12-31T11:10:47.321Z,0.63
2022-12-31T11:13:46.902Z,0.60
2022-12-31T11:16:28.541Z,0.50
2022-12-31T11:19:02.151Z,0.60
2022-12-31T11:21:42.033Z,0.60
2022-12-31T11:24:24.721Z,0.70
2022-12-31T11:27:06.852Z,0.40
2022-12-31T11:29:49.651Z,0.80
2022-12-31T11:32:28.934Z,0.50
2022-12-31T11:35:16.268Z,0.40
2022-12-31T11:37:47.221Z,0.60
2022-12-31T11:40:33.826Z,0.30
2022-12-31T11:43:04.429Z,0.50
2022-12-31T11:45:53.879Z,0.53
2022-12-31T11:48:30.530Z,0.37
2022-12-31T11:51:15.389Z,0.50
2022-12-31T11:54:07.798Z,0.40
2022-12-31T11:56:38.650Z,0.90
2022-12-31T11:59:17.134Z,0.63
2022-12-31T12:01:52.145Z,0.50
2022-12-31T12:04:19.170Z,0.80
2022-12-31T12:06:48.143Z,0.53
2022-12-31T12:09:20.548Z,0.40
2022-12-31T12:11:58.639Z,0.67
2022-12-31T12:14:31.439Z,0.60
2022-12-31T12:17:05.281Z,0.50
2022-12-31T12:19:34.985Z,0.50
2022-12-31T12:22:10.416Z,0.60
2022-12-31T12:24:37.514Z,0.40
2022-12-31T12:27:04.911Z,0.70
2022-12-31T12:29:36.475Z,0.50
2022-12-31T12:32:07.089Z,0.70
2022-12-31T12:34:36.298Z,0.43
2022-12-31T12:37:03.677Z,0.50
2022-12-31T12:39:32.975Z,0.80
2022-12-31T12:42:01.666Z,0.47
2022-12-31T12:44:28.492Z,0.70
2022-12-31T12:46:56.054Z,0.60
2022-12-31T12:49:26.602Z,0.73
2022-12-31T12:52:07.761Z,0.60
2022-12-31T12:54:52.095Z,0.60
2022-12-31T12:57:24.260Z,0.57
2022-12-31T13:00:05.207Z,0.57
2022-12-31T13:03:21.314Z,0.60
2022-12-31T13:06:04.628Z,0.57
2022-12-31T13:08:42.959Z,0.50
2022-12-31T13:11:26.228Z,0.57
2022-12-31T13:14:00.407Z,0.50
2022-12-31T13:16:34.603Z,0.70
2022-12-31T13:19:09.820Z,0.70
2022-12-31T13:21:45.612Z,0.53
2022-12-31T13:24:23.469Z,0.63
2022-12-31T13:26:57.435Z,0.50
2022-12-31T13:29:29.013Z,0.50
2022-12-31T13:31:57.570Z,0.60
2022-12-31T13:34:28.742Z,0.43
2022-12-31T13:36:59.277Z,0.50
2022-12-31T13:39:29.435Z,0.60
2022-12-31T13:42:02.451Z,0.60
2022-12-31T13:44:32.871Z,0.50
2022-12-31T13:47:08.616Z,0.60
2022-12-31T13:49:42.039Z,0.67
2022-12-31T13:52:21.877Z,0.60
2022-12-31T13:54:56.292Z,0.80
2022-12-31T13:57:34.775Z,0.60
2022-12-31T14:00:05.064Z,0.63
2022-12-31T14:02:44.954Z,0.50
2022-12-31T14:05:19.536Z,0.67
2022-12-31T14:07:53.444Z,0.60
2022-12-31T14:10:28.546Z,0.60
2022-12-31T14:13:01.714Z,0.70
2022-12-31T14:15:36.391Z,0.70
2022-12-31T14:18:10.349Z,1.10
2022-12-31T14:20:46.153Z,0.90
2022-12-31T14:23:21.038Z,0.73
2022-12-31T14:25:51.675Z,0.60
2022-12-31T14:28:23.824Z,0.63
2022-12-31T14:30:56.550Z,0.60
2022-12-31T14:33:37.528Z,0.60
2022-12-31T14:36:19.769Z,0.70
2022-12-31T14:39:07.677Z,0.70
2022-12-31T14:41:44.803Z,0.67
2022-12-31T14:44:32.141Z,0.80
2022-12-31T14:47:13.063Z,0.73
2022-12-31T14:49:50.493Z,0.90
2022-12-31T14:52:22.770Z,0.60
2022-12-31T14:55:11.143Z,0.70
2022-12-31T14:58:09.717Z,0.80
2022-12-31T15:00:33.417Z,0.67
2022-12-31T15:03:03.213Z,0.87
2022-12-31T15:05:32.114Z,0.80
2022-12-31T15:08:26.193Z,0.90
2022-12-31T15:11:18.091Z,0.87
2022-12-31T15:14:07.466Z,1.03
2022-12-31T15:16:46.921Z,1.00
2022-12-31T15:19:44.477Z,0.90
2022-12-31T15:22:29.472Z,0.80
2022-12-31T15:24:56.997Z,0.50
2022-12-31T15:27:34.156Z,0.60
2022-12-31T15:30:01.944Z,0.83
2022-12-31T15:32:35.315Z,0.70
2022-12-31T15:35:03.542Z,0.77
2022-12-31T15:37:33.349Z,0.63
2022-12-31T15:40:18.283Z,0.70
2022-12-31T15:42:50.211Z,1.00
2022-12-31T15:45:24.460Z,1.10
2022-12-31T15:47:57.093Z,3.30
2022-12-31T15:50:25.067Z,1.83
2022-12-31T15:52:54.589Z,1.53
2022-12-31T15:55:29.981Z,1.47
2022-12-31T15:58:02.892Z,1.60
2022-12-31T16:00:43.412Z,1.30
2022-12-31T16:03:21.090Z,1.40
2022-12-31T16:05:48.880Z,1.30
2022-12-31T16:08:19.514Z,1.20
2022-12-31T16:10:47.069Z,1.23
2022-12-31T16:13:21.835Z,1.10
2022-12-31T16:15:51.788Z,1.03
2022-12-31T16:18:22.968Z,0.90
2022-12-31T16:20:51.785Z,1.00
2022-12-31T16:23:24.188Z,0.90
2022-12-31T16:25:52.474Z,1.07
2022-12-31T16:28:28.113Z,1.03
2022-12-31T16:30:59.919Z,0.77
2022-12-31T16:33:27.088Z,0.90
2022-12-31T16:35:55.732Z,1.00
2022-12-31T16:38:23.146Z,1.40
2022-12-31T16:41:08.261Z,1.57
2022-12-31T16:43:39.756Z,1.80
2022-12-31T16:46:14.104Z,2.30
2022-12-31T16:48:44.890Z,2.20
2022-12-31T16:51:18.566Z,2.17
2022-12-31T16:53:45.728Z,2.70
2022-12-31T16:56:22.461Z,1.70
2022-12-31T16:58:57.974Z,1.60
2022-12-31T17:01:27.929Z,2.10
2022-12-31T17:03:58.953Z,1.60
2022-12-31T17:06:28.130Z,2.73
2022-12-31T17:09:07.099Z,2.87
2022-12-31T17:11:36.193Z,2.97
2022-12-31T17:14:14.009Z,1.80
2022-12-31T17:17:02.093Z,1.90
2022-12-31T17:19:42.032Z,2.30
2022-12-31T17:22:14.324Z,1.80
2022-12-31T17:24:41.625Z,1.90
2022-12-31T17:27:09.404Z,1.60
2022-12-31T17:29:37.676Z,1.30
2022-12-31T17:32:06.797Z,1.40
2022-12-31T17:34:36.717Z,1.30
2022-12-31T17:37:18.109Z,1.00
2022-12-31T17:39:47.836Z,1.87
2022-12-31T17:42:29.944Z,1.63
2022-12-31T17:45:00.635Z,2.00
2022-12-31T17:47:34.653Z,1.80
2022-12-31T17:50:07.102Z,1.50
2022-12-31T17:52:33.972Z,1.40
2022-12-31T17:55:00.809Z,1.30
2022-12-31T17:57:28.144Z,2.10
2022-12-31T17:59:55.117Z,1.60
2022-12-31T18:02:23.449Z,2.80
2022-12-31T18:04:50.376Z,1.60
2022-12-31T18:07:17.245Z,0.83
2022-12-31T18:09:44.042Z,1.10
2022-12-31T18:12:15.184Z,1.27
2022-12-31T18:14:44.357Z,1.40
2022-12-31T18:17:14.714Z,1.00
2022-12-31T18:22:30.245Z,1.20
2022-12-31T18:24:57.077Z,1.30
2022-12-31T18:27:23.895Z,1.20
2022-12-31T18:29:50.856Z,1.30
2022-12-31T18:32:21.256Z,1.60
2022-12-31T18:34:50.053Z,1.70
2022-12-31T18:37:21.806Z,1.70
2022-12-31T18:39:49.448Z,1.80
2022-12-31T18:42:18.378Z,2.10
2022-12-31T18:44:45.710Z,2.07
2022-12-31T18:47:13.597Z,2.80
2022-12-31T18:49:41.115Z,2.87
2022-12-31T18:52:13.225Z,3.13
2022-12-31T18:54:40.049Z,2.90
2022-12-31T18:57:06.922Z,2.30
2022-12-31T18:59:33.868Z,3.27
2022-12-31T19:02:00.786Z,2.50
2022-12-31T19:04:28.500Z,2.57
2022-12-31T19:06:55.925Z,2.40
2022-12-31T19:09:44.750Z,2.77
2022-12-31T19:12:12.895Z,3.93
2022-12-31T19:14:39.845Z,3.97
2022-12-31T19:19:32.451Z,3.17
2022-12-31T19:21:59.261Z,2.77
2022-12-31T19:24:27.779Z,2.27
2022-12-31T19:26:54.977Z,3.53
2022-12-31T19:29:23.542Z,4.30
2022-12-31T19:31:50.885Z,2.80
2022-12-31T19:34:17.831Z,5.23
2022-12-31T19:36:44.779Z,10.10
2022-12-31T19:39:15.667Z,4.53
2022-12-31T19:41:44.291Z,3.40
2022-12-31T19:44:14.082Z,4.40
2022-12-31T19:46:40.913Z,3.37
2022-12-31T19:49:10.300Z,3.90
2022-12-31T19:51:37.232Z,7.97
2022-12-31T19:54:04.196Z,4.60
2022-12-31T19:56:31.140Z,4.37
2022-12-31T19:59:03.954Z,5.27
2022-12-31T20:01:30.909Z,5.33
2022-12-31T20:03:57.835Z,6.87
2022-12-31T20:06:24.647Z,4.97
2022-12-31T20:08:51.483Z,4.33
2022-12-31T20:11:20.740Z,2.50
2022-12-31T20:13:49.448Z,2.13
2022-12-31T20:16:19.768Z,2.20
2022-12-31T20:18:47.787Z,1.90
2022-12-31T20:21:20.034Z,1.70
2022-12-31T20:23:48.176Z,1.90
2022-12-31T20:26:15.322Z,2.10
2022-12-31T20:28:42.324Z,2.00
2022-12-31T20:31:10.330Z,2.27
2022-12-31T20:33:38.618Z,2.20
2022-12-31T20:36:07.066Z,2.90
2022-12-31T20:38:34.018Z,4.20
2022-12-31T20:41:05.114Z,2.90
2022-12-31T20:43:32.228Z,3.30
2022-12-31T20:45:59.221Z,4.67
2022-12-31T20:48:26.160Z,3.70
2022-12-31T20:50:58.471Z,2.70
2022-12-31T20:53:25.402Z,2.80
2022-12-31T20:55:52.257Z,4.03
2022-12-31T20:58:19.519Z,3.83
2022-12-31T21:00:49.425Z,3.13
2022-12-31T21:03:37.259Z,2.80
2022-12-31T21:06:07.802Z,2.87
2022-12-31T21:08:35.422Z,3.63
2022-12-31T21:11:02.574Z,4.17
2022-12-31T21:13:31.036Z,4.13
2022-12-31T21:15:58.101Z,3.63
2022-12-31T21:18:25.261Z,4.30
2022-12-31T21:20:53.949Z,19.77
2022-12-31T21:23:22.697Z,18.53
2022-12-31T21:25:50.708Z,14.30
2022-12-31T21:28:17.619Z,5.70
2022-12-31T21:30:45.662Z,3.53
2022-12-31T21:33:13.611Z,3.00
2022-12-31T21:35:45.586Z,2.67
2022-12-31T21:38:16.332Z,2.60
2022-12-31T21:40:47.551Z,3.70
2022-12-31T21:43:15.565Z,4.53
2022-12-31T21:45:42.777Z,3.97
2022-12-31T21:48:23.232Z,3.47
2022-12-31T21:50:51.653Z,3.53
2022-12-31T21:53:24.748Z,3.33
2022-12-31T21:56:08.536Z,2.60
2022-12-31T21:58:36.293Z,2.63
2022-12-31T22:01:21.885Z,2.83
2022-12-31T22:03:48.881Z,2.47
2022-12-31T22:06:20.616Z,5.73
2022-12-31T22:08:50.542Z,5.70
2022-12-31T22:11:21.848Z,4.13
2022-12-31T22:13:49.356Z,3.50
2022-12-31T22:16:17.497Z,3.57
2022-12-31T22:18:44.847Z,3.00
2022-12-31T22:21:18.806Z,3.27
2022-12-31T22:23:48.699Z,3.50
2022-12-31T22:26:19.970Z,4.60
2022-12-31T22:28:47.568Z,3.50
2022-12-31T22:31:16.715Z,3.67
2022-12-31T22:33:44.117Z,3.43
2022-12-31T22:36:13.942Z,3.60
2022-12-31T22:38:40.965Z,3.93
2022-12-31T22:41:09.958Z,5.70
2022-12-31T22:43:40.910Z,5.07
2022-12-31T22:46:10.099Z,4.60
2022-12-31T22:48:37.137Z,4.10
2022-12-31T22:51:04.341Z,3.70
2022-12-31T22:53:31.282Z,3.43
2022-12-31T22:55:58.473Z,3.63
2022-12-31T22:58:25.857Z,4.30
2022-12-31T23:00:54.094Z,38.37
2022-12-31T23:03:21.167Z,38.53
2022-12-31T23:05:51.453Z,51.57
2022-12-31T23:08:23.277Z,47.13
2022-12-31T23:11:05.248Z,26.40
2022-12-31T23:13:55.836Z,38.53
2022-12-31T23:16:44.640Z,34.03
2022-12-31T23:19:30.505Z,40.23
2022-12-31T23:22:16.502Z,29.43
2022-12-31T23:24:43.369Z,33.50
2022-12-31T23:27:10.857Z,20.73
2022-12-31T23:29:45.652Z,19.57
2022-12-31T23:32:15.766Z,35.00
2022-12-31T23:34:44.647Z,19.57
2022-12-31T23:37:11.670Z,15.43
2022-12-31T23:39:38.748Z,12.63
2022-12-31T23:42:05.755Z,14.30
2022-12-31T23:44:32.714Z,12.50
2022-12-31T23:46:59.642Z,14.23
2022-12-31T23:49:27.947Z,12.70
2022-12-31T23:51:54.808Z,13.90
2022-12-31T23:54:21.675Z,13.20
2022-12-31T23:56:48.739Z,11.97
2022-12-31T23:59:15.820Z,10.43
